Terminal Aerodrome Forecast
Issued by NWS

Home | Current Version | Previous Version | Text Only | Print | Product List | Glossary On
Versions: 1 2 3 4 5 6 7 8 9 10 11 12 13 14 15 16 17 18 19 20 21 22 23 24
000
FTAK31 PANC 262001 AAB
TAFADL
TAF AMD
PADL 262001Z 2620/2718 06008KT 6SM -RA SCT006 OVC030
      TEMPO 2620/2624 3SM -RA BR OVC006
     FM270300 02005KT P6SM -SHRA SCT015 BKN025
     FM270900 01005KT P6SM VCSH SCT008 BKN050=

USA.gov is the U.S. government's official web portal to all federal, state and local government web resources and services.